sensor_id;sensor_type;location;lat;lon;timestamp;P1;durP1;ratioP1;P2;durP2;ratioP2
9200;SDS011;4635;48.686;9.008;2022-12-22T00:05:24;5.40;;;2.10;;
9200;SDS011;4635;48.686;9.008;2022-12-22T00:08:17;2.80;;;2.60;;
9200;SDS011;4635;48.686;9.008;2022-12-22T00:11:05;2.47;;;2.10;;
9200;SDS011;4635;48.686;9.008;2022-12-22T00:14:07;4.00;;;2.40;;
9200;SDS011;4635;48.686;9.008;2022-12-22T00:16:56;3.43;;;2.33;;
9200;SDS011;4635;48.686;9.008;2022-12-22T00:19:42;2.20;;;2.00;;
9200;SDS011;4635;48.686;9.008;2022-12-22T00:25:39;1.87;;;1.77;;
9200;SDS011;4635;48.686;9.008;2022-12-22T00:28:26;2.33;;;2.13;;
9200;SDS011;4635;48.686;9.008;2022-12-22T00:31:14;7.70;;;2.13;;
9200;SDS011;4635;48.686;9.008;2022-12-22T00:34:04;3.20;;;2.27;;
9200;SDS011;4635;48.686;9.008;2022-12-22T00:36:59;4.23;;;2.30;;
9200;SDS011;4635;48.686;9.008;2022-12-22T00:40:04;2.80;;;2.33;;
9200;SDS011;4635;48.686;9.008;2022-12-22T00:43:00;4.83;;;2.57;;
9200;SDS011;4635;48.686;9.008;2022-12-22T00:46:18;2.93;;;2.73;;
9200;SDS011;4635;48.686;9.008;2022-12-22T00:48:49;3.50;;;3.20;;
9200;SDS011;4635;48.686;9.008;2022-12-22T00:51:35;4.43;;;3.77;;
9200;SDS011;4635;48.686;9.008;2022-12-22T00:54:24;4.30;;;3.90;;
9200;SDS011;4635;48.686;9.008;2022-12-22T00:57:14;4.90;;;3.40;;
9200;SDS011;4635;48.686;9.008;2022-12-22T01:00:01;8.60;;;3.37;;
9200;SDS011;4635;48.686;9.008;2022-12-22T01:02:48;5.60;;;4.10;;
9200;SDS011;4635;48.686;9.008;2022-12-22T01:05:34;3.83;;;3.37;;
9200;SDS011;4635;48.686;9.008;2022-12-22T01:08:25;5.50;;;4.00;;
9200;SDS011;4635;48.686;9.008;2022-12-22T01:11:38;4.07;;;3.27;;
9200;SDS011;4635;48.686;9.008;2022-12-22T01:17:01;6.50;;;4.43;;
9200;SDS011;4635;48.686;9.008;2022-12-22T01:19:49;4.67;;;3.77;;
9200;SDS011;4635;48.686;9.008;2022-12-22T01:22:38;5.90;;;4.83;;
9200;SDS011;4635;48.686;9.008;2022-12-22T01:25:44;4.87;;;3.60;;
9200;SDS011;4635;48.686;9.008;2022-12-22T01:28:29;7.07;;;3.70;;
9200;SDS011;4635;48.686;9.008;2022-12-22T01:31:18;6.00;;;4.10;;
9200;SDS011;4635;48.686;9.008;2022-12-22T04:19:10;3.77;;;1.17;;
9200;SDS011;4635;48.686;9.008;2022-12-22T04:21:56;2.37;;;1.00;;
9200;SDS011;4635;48.686;9.008;2022-12-22T04:24:48;2.70;;;1.20;;
9200;SDS011;4635;48.686;9.008;2022-12-22T04:28:10;2.57;;;1.00;;
9200;SDS011;4635;48.686;9.008;2022-12-22T06:43:51;8.77;;;2.30;;
9200;SDS011;4635;48.686;9.008;2022-12-22T06:46:46;15.27;;;2.90;;
9200;SDS011;4635;48.686;9.008;2022-12-22T06:50:06;16.67;;;2.10;;
9200;SDS011;4635;48.686;9.008;2022-12-22T06:53:14;6.77;;;1.57;;
9200;SDS011;4635;48.686;9.008;2022-12-22T07:06:08;13.90;;;2.13;;
9200;SDS011;4635;48.686;9.008;2022-12-22T07:09:02;11.20;;;1.93;;
9200;SDS011;4635;48.686;9.008;2022-12-22T07:12:21;17.93;;;2.70;;
9200;SDS011;4635;48.686;9.008;2022-12-22T07:20:26;11.57;;;2.70;;
9200;SDS011;4635;48.686;9.008;2022-12-22T08:18:22;8.80;;;3.07;;
9200;SDS011;4635;48.686;9.008;2022-12-22T08:21:05;9.50;;;2.47;;
9200;SDS011;4635;48.686;9.008;2022-12-22T08:24:16;15.23;;;2.90;;
9200;SDS011;4635;48.686;9.008;2022-12-22T08:28:00;12.83;;;2.97;;
